sensor_id;sensor_type;location;lat;lon;timestamp;P1;durP1;ratioP1;P2;durP2;ratioP2
23072;SDS011;67971;51.046;3.732;2023-07-29T00:01:40;6.70;;;2.75;;
23072;SDS011;67971;51.046;3.732;2023-07-29T00:04:06;5.05;;;3.15;;
23072;SDS011;67971;51.046;3.732;2023-07-29T00:06:33;5.80;;;3.05;;
23072;SDS011;67971;51.046;3.732;2023-07-29T00:08:59;6.53;;;3.47;;
23072;SDS011;67971;51.046;3.732;2023-07-29T00:11:25;4.93;;;3.42;;
23072;SDS011;67971;51.046;3.732;2023-07-29T00:13:51;5.40;;;3.10;;
23072;SDS011;67971;51.046;3.732;2023-07-29T00:16:17;4.60;;;2.97;;
23072;SDS011;67971;51.046;3.732;2023-07-29T00:18:46;4.28;;;2.92;;
23072;SDS011;67971;51.046;3.732;2023-07-29T00:21:12;5.03;;;3.15;;
23072;SDS011;67971;51.046;3.732;2023-07-29T00:23:38;3.65;;;2.78;;
23072;SDS011;67971;51.046;3.732;2023-07-29T00:26:04;7.28;;;3.20;;
23072;SDS011;67971;51.046;3.732;2023-07-29T00:28:29;4.05;;;2.80;;
23072;SDS011;67971;51.046;3.732;2023-07-29T00:30:55;6.55;;;3.40;;
23072;SDS011;67971;51.046;3.732;2023-07-29T00:33:21;4.13;;;3.20;;
23072;SDS011;67971;51.046;3.732;2023-07-29T00:35:46;3.45;;;3.15;;
23072;SDS011;67971;51.046;3.732;2023-07-29T00:38:12;4.38;;;2.63;;
23072;SDS011;67971;51.046;3.732;2023-07-29T00:40:38;6.07;;;3.10;;
23072;SDS011;67971;51.046;3.732;2023-07-29T00:43:04;4.38;;;2.92;;
23072;SDS011;67971;51.046;3.732;2023-07-29T00:45:30;5.35;;;3.20;;
23072;SDS011;67971;51.046;3.732;2023-07-29T00:47:57;5.47;;;2.78;;
23072;SDS011;67971;51.046;3.732;2023-07-29T00:50:23;5.72;;;3.00;;
23072;SDS011;67971;51.046;3.732;2023-07-29T00:52:49;3.55;;;3.17;;
23072;SDS011;67971;51.046;3.732;2023-07-29T00:55:15;4.53;;;3.25;;
23072;SDS011;67971;51.046;3.732;2023-07-29T00:57:41;5.65;;;3.50;;
23072;SDS011;67971;51.046;3.732;2023-07-29T01:00:10;7.45;;;4.10;;
23072;SDS011;67971;51.046;3.732;2023-07-29T01:02:36;7.55;;;3.92;;
23072;SDS011;67971;51.046;3.732;2023-07-29T01:05:02;6.03;;;4.15;;
23072;SDS011;67971;51.046;3.732;2023-07-29T01:10:19;6.78;;;3.65;;
23072;SDS011;67971;51.046;3.732;2023-07-29T01:16:08;4.75;;;3.05;;
23072;SDS011;67971;51.046;3.732;2023-07-29T01:18:38;5.18;;;3.20;;
23072;SDS011;67971;51.046;3.732;2023-07-29T01:21:08;4.53;;;3.38;;
23072;SDS011;67971;51.046;3.732;2023-07-29T01:23:36;7.93;;;3.20;;
23072;SDS011;67971;51.046;3.732;2023-07-29T01:26:02;5.18;;;3.05;;
23072;SDS011;67971;51.046;3.732;2023-07-29T01:28:28;6.95;;;3.05;;
23072;SDS011;67971;51.046;3.732;2023-07-29T01:30:57;5.38;;;3.00;;
23072;SDS011;67971;51.046;3.732;2023-07-29T01:33:33;7.65;;;3.38;;
23072;SDS011;67971;51.046;3.732;2023-07-29T01:36:11;5.85;;;3.03;;
23072;SDS011;67971;51.046;3.732;2023-07-29T01:38:43;6.18;;;3.17;;
23072;SDS011;67971;51.046;3.732;2023-07-29T01:41:10;7.15;;;3.00;;
23072;SDS011;67971;51.046;3.732;2023-07-29T01:43:36;5.38;;;2.90;;
23072;SDS011;67971;51.046;3.732;2023-07-29T01:46:08;5.30;;;3.38;;
23072;SDS011;67971;51.046;3.732;2023-07-29T01:48:38;7.32;;;3.30;;
23072;SDS011;67971;51.046;3.732;2023-07-29T01:51:04;7.40;;;3.22;;
23072;SDS011;67971;51.046;3.732;2023-07-29T01:53:30;7.63;;;4.30;;
23072;SDS011;67971;51.046;3.732;2023-07-29T01:55:56;6.18;;;3.40;;
23072;SDS011;67971;51.046;3.732;2023-07-29T01:58:22;3.83;;;3.33;;
23072;SDS011;67971;51.046;3.732;2023-07-29T02:00:48;5.15;;;3.92;;
23072;SDS011;67971;51.046;3.732;2023-07-29T02:03:13;4.55;;;3.03;;
23072;SDS011;67971;51.046;3.732;2023-07-29T02:05:39;5.05;;;3.53;;
23072;SDS011;67971;51.046;3.732;2023-07-29T02:08:05;4.72;;;3.53;;
23072;SDS011;67971;51.046;3.732;2023-07-29T02:10:30;5.57;;;3.20;;
23072;SDS011;67971;51.046;3.732;2023-07-29T02:12:56;8.98;;;3.40;;
23072;SDS011;67971;51.046;3.732;2023-07-29T02:15:22;5.75;;;3.53;;
23072;SDS011;67971;51.046;3.732;2023-07-29T02:17:49;4.95;;;3.55;;
23072;SDS011;67971;51.046;3.732;2023-07-29T02:20:15;5.80;;;3.63;;
23072;SDS011;67971;51.046;3.732;2023-07-29T02:22:41;4.35;;;3.10;;
23072;SDS011;67971;51.046;3.732;2023-07-29T02:25:06;5.43;;;3.90;;
23072;SDS011;67971;51.046;3.732;2023-07-29T02:27:32;7.18;;;4.07;;
23072;SDS011;67971;51.046;3.732;2023-07-29T02:29:58;7.55;;;3.30;;
23072;SDS011;67971;51.046;3.732;2023-07-29T02:32:24;5.88;;;3.42;;
23072;SDS011;67971;51.046;3.732;2023-07-29T02:34:50;6.00;;;3.75;;
23072;SDS011;67971;51.046;3.732;2023-07-29T02:37:15;3.92;;;3.28;;
23072;SDS011;67971;51.046;3.732;2023-07-29T02:39:41;8.13;;;3.17;;
23072;SDS011;67971;51.046;3.732;2023-07-29T02:42:07;4.68;;;3.35;;
23072;SDS011;67971;51.046;3.732;2023-07-29T02:44:32;11.23;;;3.42;;
23072;SDS011;67971;51.046;3.732;2023-07-29T02:46:58;5.35;;;3.20;;
23072;SDS011;67971;51.046;3.732;2023-07-29T02:49:24;4.40;;;2.72;;
23072;SDS011;67971;51.046;3.732;2023-07-29T02:51:49;5.57;;;3.22;;
23072;SDS011;67971;51.046;3.732;2023-07-29T02:54:15;4.45;;;3.50;;
23072;SDS011;67971;51.046;3.732;2023-07-29T02:56:41;4.53;;;3.22;;
23072;SDS011;67971;51.046;3.732;2023-07-29T02:59:07;4.15;;;3.15;;
23072;SDS011;67971;51.046;3.732;2023-07-29T03:01:33;3.90;;;3.05;;
23072;SDS011;67971;51.046;3.732;2023-07-29T03:03:58;4.93;;;3.05;;
23072;SDS011;67971;51.046;3.732;2023-07-29T03:06:24;6.88;;;3.03;;
23072;SDS011;67971;51.046;3.732;2023-07-29T03:08:50;5.05;;;3.83;;
23072;SDS011;67971;51.046;3.732;2023-07-29T03:11:15;5.20;;;3.00;;
23072;SDS011;67971;51.046;3.732;2023-07-29T03:13:41;4.45;;;3.38;;
23072;SDS011;67971;51.046;3.732;2023-07-29T03:16:09;3.97;;;3.03;;
23072;SDS011;67971;51.046;3.732;2023-07-29T03:18:36;4.15;;;3.03;;
23072;SDS011;67971;51.046;3.732;2023-07-29T03:21:02;5.60;;;3.20;;
23072;SDS011;67971;51.046;3.732;2023-07-29T03:23:28;6.38;;;3.20;;
23072;SDS011;67971;51.046;3.732;2023-07-29T03:25:55;6.25;;;3.72;;
23072;SDS011;67971;51.046;3.732;2023-07-29T03:28:23;5.13;;;3.00;;
23072;SDS011;67971;51.046;3.732;2023-07-29T03:30:56;4.75;;;3.30;;
23072;SDS011;67971;51.046;3.732;2023-07-29T03:33:23;3.90;;;3.15;;
23072;SDS011;67971;51.046;3.732;2023-07-29T03:35:50;5.35;;;3.50;;
23072;SDS011;67971;51.046;3.732;2023-07-29T03:38:16;5.43;;;3.47;;
23072;SDS011;67971;51.046;3.732;2023-07-29T03:40:42;5.97;;;3.60;;
23072;SDS011;67971;51.046;3.732;2023-07-29T03:43:08;7.20;;;2.88;;
23072;SDS011;67971;51.046;3.732;2023-07-29T03:45:34;8.00;;;3.60;;
23072;SDS011;67971;51.046;3.732;2023-07-29T03:48:00;7.22;;;4.00;;
23072;SDS011;67971;51.046;3.732;2023-07-29T03:50:27;4.22;;;3.20;;
23072;SDS011;67971;51.046;3.732;2023-07-29T03:52:54;9.90;;;3.90;;
23072;SDS011;67971;51.046;3.732;2023-07-29T03:55:20;8.35;;;3.80;;
23072;SDS011;67971;51.046;3.732;2023-07-29T03:57:45;9.57;;;3.15;;
23072;SDS011;67971;51.046;3.732;2023-07-29T04:00:11;5.78;;;3.78;;
23072;SDS011;67971;51.046;3.732;2023-07-29T04:02:37;4.70;;;3.50;;
23072;SDS011;67971;51.046;3.732;2023-07-29T04:05:03;5.28;;;3.45;;
23072;SDS011;67971;51.046;3.732;2023-07-29T04:07:30;6.18;;;3.78;;
23072;SDS011;67971;51.046;3.732;2023-07-29T04:09:56;5.53;;;3.22;;
23072;SDS011;67971;51.046;3.732;2023-07-29T04:12:22;3.42;;;3.10;;
23072;SDS011;67971;51.046;3.732;2023-07-29T04:14:48;5.45;;;3.30;;
23072;SDS011;67971;51.046;3.732;2023-07-29T04:17:14;5.70;;;3.33;;
23072;SDS011;67971;51.046;3.732;2023-07-29T04:19:40;6.95;;;3.53;;
23072;SDS011;67971;51.046;3.732;2023-07-29T04:22:05;4.10;;;3.63;;
23072;SDS011;67971;51.046;3.732;2023-07-29T04:24:31;4.03;;;3.00;;
23072;SDS011;67971;51.046;3.732;2023-07-29T04:26:57;4.32;;;3.17;;
23072;SDS011;67971;51.046;3.732;2023-07-29T04:29:22;6.28;;;3.50;;
23072;SDS011;67971;51.046;3.732;2023-07-29T04:31:49;7.43;;;3.15;;
23072;SDS011;67971;51.046;3.732;2023-07-29T04:34:15;4.00;;;3.50;;
23072;SDS011;67971;51.046;3.732;2023-07-29T04:36:40;6.05;;;3.88;;
23072;SDS011;67971;51.046;3.732;2023-07-29T04:39:06;5.32;;;3.30;;
23072;SDS011;67971;51.046;3.732;2023-07-29T04:41:32;9.27;;;3.65;;
23072;SDS011;67971;51.046;3.732;2023-07-29T04:43:58;10.90;;;3.63;;
23072;SDS011;67971;51.046;3.732;2023-07-29T04:46:24;6.00;;;3.63;;
23072;SDS011;67971;51.046;3.732;2023-07-29T04:48:49;6.25;;;3.83;;
23072;SDS011;67971;51.046;3.732;2023-07-29T04:51:15;9.05;;;3.85;;
23072;SDS011;67971;51.046;3.732;2023-07-29T04:53:40;6.25;;;3.15;;
23072;SDS011;67971;51.046;3.732;2023-07-29T04:56:06;6.53;;;3.92;;
23072;SDS011;67971;51.046;3.732;2023-07-29T04:58:31;7.18;;;3.35;;
23072;SDS011;67971;51.046;3.732;2023-07-29T05:01:00;5.72;;;3.58;;
23072;SDS011;67971;51.046;3.732;2023-07-29T05:03:26;7.00;;;3.78;;
23072;SDS011;67971;51.046;3.732;2023-07-29T05:05:52;6.82;;;3.75;;
23072;SDS011;67971;51.046;3.732;2023-07-29T05:08:20;4.82;;;3.30;;
23072;SDS011;67971;51.046;3.732;2023-07-29T05:10:49;5.55;;;3.58;;
23072;SDS011;67971;51.046;3.732;2023-07-29T05:13:19;9.02;;;3.35;;
23072;SDS011;67971;51.046;3.732;2023-07-29T05:15:46;7.97;;;3.30;;
23072;SDS011;67971;51.046;3.732;2023-07-29T05:18:13;5.75;;;3.05;;
23072;SDS011;67971;51.046;3.732;2023-07-29T05:20:39;4.07;;;2.97;;
23072;SDS011;67971;51.046;3.732;2023-07-29T05:23:04;3.70;;;2.80;;
23072;SDS011;67971;51.046;3.732;2023-07-29T05:25:30;7.82;;;3.10;;
23072;SDS011;67971;51.046;3.732;2023-07-29T05:27:56;7.40;;;3.17;;
23072;SDS011;67971;51.046;3.732;2023-07-29T05:30:22;3.83;;;2.83;;
23072;SDS011;67971;51.046;3.732;2023-07-29T05:32:48;3.35;;;2.75;;
23072;SDS011;67971;51.046;3.732;2023-07-29T05:35:14;6.60;;;2.92;;
23072;SDS011;67971;51.046;3.732;2023-07-29T05:37:39;4.00;;;3.15;;
23072;SDS011;67971;51.046;3.732;2023-07-29T05:40:06;3.83;;;2.80;;
23072;SDS011;67971;51.046;3.732;2023-07-29T05:42:33;6.32;;;3.10;;
23072;SDS011;67971;51.046;3.732;2023-07-29T05:44:59;5.32;;;2.70;;
23072;SDS011;67971;51.046;3.732;2023-07-29T05:47:25;4.97;;;2.25;;
23072;SDS011;67971;51.046;3.732;2023-07-29T05:49:51;3.28;;;2.50;;
23072;SDS011;67971;51.046;3.732;2023-07-29T05:52:17;3.55;;;2.10;;
23072;SDS011;67971;51.046;3.732;2023-07-29T05:54:43;3.60;;;2.70;;
23072;SDS011;67971;51.046;3.732;2023-07-29T05:57:09;4.72;;;2.50;;
23072;SDS011;67971;51.046;3.732;2023-07-29T05:59:36;5.88;;;2.53;;
23072;SDS011;67971;51.046;3.732;2023-07-29T06:02:01;3.88;;;2.13;;
23072;SDS011;67971;51.046;3.732;2023-07-29T06:04:27;3.63;;;2.53;;
23072;SDS011;67971;51.046;3.732;2023-07-29T06:06:52;3.03;;;2.25;;
23072;SDS011;67971;51.046;3.732;2023-07-29T06:09:20;5.30;;;2.60;;
23072;SDS011;67971;51.046;3.732;2023-07-29T06:11:46;5.45;;;2.42;;
23072;SDS011;67971;51.046;3.732;2023-07-29T06:14:12;3.83;;;2.55;;
23072;SDS011;67971;51.046;3.732;2023-07-29T06:16:37;4.03;;;2.45;;
23072;SDS011;67971;51.046;3.732;2023-07-29T06:19:03;3.33;;;2.58;;
23072;SDS011;67971;51.046;3.732;2023-07-29T06:21:29;3.55;;;2.45;;
23072;SDS011;67971;51.046;3.732;2023-07-29T06:23:54;2.85;;;2.20;;
23072;SDS011;67971;51.046;3.732;2023-07-29T06:26:20;2.83;;;2.20;;
23072;SDS011;67971;51.046;3.732;2023-07-29T06:28:46;3.97;;;2.00;;
23072;SDS011;67971;51.046;3.732;2023-07-29T06:31:11;3.05;;;1.95;;
23072;SDS011;67971;51.046;3.732;2023-07-29T06:33:37;5.10;;;2.28;;
23072;SDS011;67971;51.046;3.732;2023-07-29T06:36:02;5.03;;;2.53;;
23072;SDS011;67971;51.046;3.732;2023-07-29T06:38:28;2.72;;;1.80;;
23072;SDS011;67971;51.046;3.732;2023-07-29T06:40:54;6.97;;;2.10;;
23072;SDS011;67971;51.046;3.732;2023-07-29T06:43:19;3.83;;;2.67;;
23072;SDS011;67971;51.046;3.732;2023-07-29T06:45:46;3.92;;;2.78;;
23072;SDS011;67971;51.046;3.732;2023-07-29T06:48:12;3.88;;;2.10;;
23072;SDS011;67971;51.046;3.732;2023-07-29T06:50:37;4.68;;;2.50;;
23072;SDS011;67971;51.046;3.732;2023-07-29T06:53:03;2.60;;;2.17;;
23072;SDS011;67971;51.046;3.732;2023-07-29T06:55:28;5.90;;;2.33;;
23072;SDS011;67971;51.046;3.732;2023-07-29T06:57:54;2.42;;;1.90;;
23072;SDS011;67971;51.046;3.732;2023-07-29T07:00:20;3.30;;;2.10;;
23072;SDS011;67971;51.046;3.732;2023-07-29T07:02:46;3.53;;;1.90;;
23072;SDS011;67971;51.046;3.732;2023-07-29T07:05:11;4.40;;;2.40;;
23072;SDS011;67971;51.046;3.732;2023-07-29T07:07:37;6.65;;;2.45;;
23072;SDS011;67971;51.046;3.732;2023-07-29T07:10:03;4.32;;;2.00;;
23072;SDS011;67971;51.046;3.732;2023-07-29T07:12:29;4.18;;;2.13;;
23072;SDS011;67971;51.046;3.732;2023-07-29T07:14:54;4.40;;;2.33;;
23072;SDS011;67971;51.046;3.732;2023-07-29T07:17:20;5.28;;;2.08;;
23072;SDS011;67971;51.046;3.732;2023-07-29T07:19:46;7.70;;;2.03;;
23072;SDS011;67971;51.046;3.732;2023-07-29T07:22:11;6.25;;;2.33;;
23072;SDS011;67971;51.046;3.732;2023-07-29T07:24:37;5.80;;;2.75;;
23072;SDS011;67971;51.046;3.732;2023-07-29T07:27:03;4.35;;;2.30;;
23072;SDS011;67971;51.046;3.732;2023-07-29T07:29:28;5.15;;;2.03;;
23072;SDS011;67971;51.046;3.732;2023-07-29T07:31:55;3.88;;;2.10;;
23072;SDS011;67971;51.046;3.732;2023-07-29T07:34:21;4.40;;;2.33;;
23072;SDS011;67971;51.046;3.732;2023-07-29T07:36:47;5.55;;;2.03;;
23072;SDS011;67971;51.046;3.732;2023-07-29T07:39:13;3.60;;;2.33;;
23072;SDS011;67971;51.046;3.732;2023-07-29T07:41:39;3.15;;;2.05;;
23072;SDS011;67971;51.046;3.732;2023-07-29T07:44:05;5.82;;;2.35;;
23072;SDS011;67971;51.046;3.732;2023-07-29T07:46:30;3.85;;;1.83;;
23072;SDS011;67971;51.046;3.732;2023-07-29T07:48:56;3.35;;;1.85;;
23072;SDS011;67971;51.046;3.732;2023-07-29T07:51:22;5.55;;;2.05;;
23072;SDS011;67971;51.046;3.732;2023-07-29T07:53:48;3.55;;;1.92;;
23072;SDS011;67971;51.046;3.732;2023-07-29T07:56:14;5.40;;;2.50;;
23072;SDS011;67971;51.046;3.732;2023-07-29T07:58:40;4.07;;;1.92;;
23072;SDS011;67971;51.046;3.732;2023-07-29T08:01:06;2.08;;;1.58;;
23072;SDS011;67971;51.046;3.732;2023-07-29T08:03:32;2.17;;;1.65;;
23072;SDS011;67971;51.046;3.732;2023-07-29T08:05:58;4.10;;;1.90;;
23072;SDS011;67971;51.046;3.732;2023-07-29T08:08:27;6.50;;;2.10;;
23072;SDS011;67971;51.046;3.732;2023-07-29T08:10:53;3.85;;;2.28;;
23072;SDS011;67971;51.046;3.732;2023-07-29T08:13:20;3.15;;;1.83;;
23072;SDS011;67971;51.046;3.732;2023-07-29T08:15:48;3.60;;;1.73;;
23072;SDS011;67971;51.046;3.732;2023-07-29T08:18:14;3.45;;;1.85;;
23072;SDS011;67971;51.046;3.732;2023-07-29T08:20:40;2.83;;;1.98;;
23072;SDS011;67971;51.046;3.732;2023-07-29T08:23:06;3.10;;;2.00;;
23072;SDS011;67971;51.046;3.732;2023-07-29T08:25:32;2.75;;;1.83;;
23072;SDS011;67971;51.046;3.732;2023-07-29T08:27:57;3.80;;;2.30;;
23072;SDS011;67971;51.046;3.732;2023-07-29T08:30:23;6.25;;;2.58;;
23072;SDS011;67971;51.046;3.732;2023-07-29T08:32:48;2.83;;;2.08;;
23072;SDS011;67971;51.046;3.732;2023-07-29T08:35:15;3.40;;;2.35;;
23072;SDS011;67971;51.046;3.732;2023-07-29T08:37:41;5.40;;;2.80;;
23072;SDS011;67971;51.046;3.732;2023-07-29T08:40:07;4.25;;;2.28;;
23072;SDS011;67971;51.046;3.732;2023-07-29T08:42:33;4.15;;;2.35;;
23072;SDS011;67971;51.046;3.732;2023-07-29T08:45:06;2.80;;;2.03;;
23072;SDS011;67971;51.046;3.732;2023-07-29T08:47:36;2.58;;;2.22;;
23072;SDS011;67971;51.046;3.732;2023-07-29T08:50:02;3.70;;;2.28;;
23072;SDS011;67971;51.046;3.732;2023-07-29T08:52:29;3.13;;;2.30;;
23072;SDS011;67971;51.046;3.732;2023-07-29T08:54:57;2.00;;;1.80;;
23072;SDS011;67971;51.046;3.732;2023-07-29T08:57:23;2.30;;;2.10;;
23072;SDS011;67971;51.046;3.732;2023-07-29T08:59:49;2.58;;;2.38;;
23072;SDS011;67971;51.046;3.732;2023-07-29T09:02:15;5.10;;;2.50;;
23072;SDS011;67971;51.046;3.732;2023-07-29T09:04:40;5.78;;;2.20;;
23072;SDS011;67971;51.046;3.732;2023-07-29T09:07:06;5.97;;;2.42;;
23072;SDS011;67971;51.046;3.732;2023-07-29T09:09:32;5.15;;;2.28;;
23072;SDS011;67971;51.046;3.732;2023-07-29T09:11:58;2.97;;;2.30;;
23072;SDS011;67971;51.046;3.732;2023-07-29T09:14:24;6.63;;;2.10;;
23072;SDS011;67971;51.046;3.732;2023-07-29T09:16:50;4.05;;;2.42;;
23072;SDS011;67971;51.046;3.732;2023-07-29T09:19:16;4.50;;;2.17;;
23072;SDS011;67971;51.046;3.732;2023-07-29T09:21:42;5.65;;;3.30;;
23072;SDS011;67971;51.046;3.732;2023-07-29T09:24:07;4.20;;;2.40;;
23072;SDS011;67971;51.046;3.732;2023-07-29T09:26:34;3.20;;;1.90;;
23072;SDS011;67971;51.046;3.732;2023-07-29T09:29:00;4.10;;;2.63;;
23072;SDS011;67971;51.046;3.732;2023-07-29T09:31:27;4.20;;;2.30;;
23072;SDS011;67971;51.046;3.732;2023-07-29T09:33:57;5.40;;;2.58;;
23072;SDS011;67971;51.046;3.732;2023-07-29T09:36:25;6.20;;;2.28;;
23072;SDS011;67971;51.046;3.732;2023-07-29T09:38:54;5.63;;;2.22;;
23072;SDS011;67971;51.046;3.732;2023-07-29T09:41:25;3.42;;;2.33;;
23072;SDS011;67971;51.046;3.732;2023-07-29T09:43:58;4.38;;;2.40;;
23072;SDS011;67971;51.046;3.732;2023-07-29T09:46:31;3.13;;;2.15;;
23072;SDS011;67971;51.046;3.732;2023-07-29T09:49:02;3.38;;;2.45;;
23072;SDS011;67971;51.046;3.732;2023-07-29T09:51:31;3.47;;;2.45;;
23072;SDS011;67971;51.046;3.732;2023-07-29T09:54:03;6.65;;;2.63;;
23072;SDS011;67971;51.046;3.732;2023-07-29T09:56:29;5.15;;;2.53;;
23072;SDS011;67971;51.046;3.732;2023-07-29T09:58:56;4.57;;;3.65;;
23072;SDS011;67971;51.046;3.732;2023-07-29T10:01:22;4.63;;;2.97;;
23072;SDS011;67971;51.046;3.732;2023-07-29T10:03:48;4.60;;;2.42;;
23072;SDS011;67971;51.046;3.732;2023-07-29T10:06:14;5.20;;;3.60;;
23072;SDS011;67971;51.046;3.732;2023-07-29T10:08:40;4.15;;;2.80;;
23072;SDS011;67971;51.046;3.732;2023-07-29T10:11:08;4.65;;;3.47;;
23072;SDS011;67971;51.046;3.732;2023-07-29T10:13:36;7.82;;;3.45;;
23072;SDS011;67971;51.046;3.732;2023-07-29T10:16:02;5.55;;;3.22;;
23072;SDS011;67971;51.046;3.732;2023-07-29T10:18:32;3.65;;;3.05;;
23072;SDS011;67971;51.046;3.732;2023-07-29T10:20:59;7.60;;;3.08;;
23072;SDS011;67971;51.046;3.732;2023-07-29T10:23:26;6.50;;;3.67;;
23072;SDS011;67971;51.046;3.732;2023-07-29T10:25:58;6.03;;;3.38;;
23072;SDS011;67971;51.046;3.732;2023-07-29T10:28:30;5.53;;;3.53;;
23072;SDS011;67971;51.046;3.732;2023-07-29T10:30:56;4.70;;;2.85;;
23072;SDS011;67971;51.046;3.732;2023-07-29T10:33:23;5.55;;;3.30;;
23072;SDS011;67971;51.046;3.732;2023-07-29T10:35:49;4.95;;;3.05;;
23072;SDS011;67971;51.046;3.732;2023-07-29T10:38:16;7.88;;;3.45;;
23072;SDS011;67971;51.046;3.732;2023-07-29T10:43:24;11.75;;;4.40;;
23072;SDS011;67971;51.046;3.732;2023-07-29T10:45:57;7.72;;;4.22;;
23072;SDS011;67971;51.046;3.732;2023-07-29T10:48:40;9.60;;;3.47;;
23072;SDS011;67971;51.046;3.732;2023-07-29T10:51:28;15.43;;;3.47;;
23072;SDS011;67971;51.046;3.732;2023-07-29T10:53:55;9.43;;;2.15;;
23072;SDS011;67971;51.046;3.732;2023-07-29T10:56:26;2.63;;;1.58;;
23072;SDS011;67971;51.046;3.732;2023-07-29T10:58:54;5.60;;;1.50;;
23072;SDS011;67971;51.046;3.732;2023-07-29T11:01:28;3.05;;;1.42;;
23072;SDS011;67971;51.046;3.732;2023-07-29T11:17:40;3.20;;;1.50;;
23072;SDS011;67971;51.046;3.732;2023-07-29T11:20:13;4.35;;;2.22;;
23072;SDS011;67971;51.046;3.732;2023-07-29T11:22:39;1.73;;;1.55;;
23072;SDS011;67971;51.046;3.732;2023-07-29T11:25:06;2.05;;;1.65;;
23072;SDS011;67971;51.046;3.732;2023-07-29T11:27:34;3.45;;;2.25;;
23072;SDS011;67971;51.046;3.732;2023-07-29T11:30:01;1.73;;;1.40;;
23072;SDS011;67971;51.046;3.732;2023-07-29T11:32:35;2.45;;;1.42;;
23072;SDS011;67971;51.046;3.732;2023-07-29T11:35:02;2.97;;;2.05;;
23072;SDS011;67971;51.046;3.732;2023-07-29T11:37:33;5.90;;;2.03;;
23072;SDS011;67971;51.046;3.732;2023-07-29T11:39:59;2.90;;;1.90;;
23072;SDS011;67971;51.046;3.732;2023-07-29T11:42:26;2.70;;;1.55;;
23072;SDS011;67971;51.046;3.732;2023-07-29T11:44:52;2.40;;;1.70;;
23072;SDS011;67971;51.046;3.732;2023-07-29T11:47:21;4.60;;;1.70;;
23072;SDS011;67971;51.046;3.732;2023-07-29T11:49:46;5.05;;;1.80;;
23072;SDS011;67971;51.046;3.732;2023-07-29T11:52:12;2.80;;;1.95;;
23072;SDS011;67971;51.046;3.732;2023-07-29T11:54:38;2.28;;;1.92;;
23072;SDS011;67971;51.046;3.732;2023-07-29T11:57:07;2.45;;;1.85;;
23072;SDS011;67971;51.046;3.732;2023-07-29T11:59:34;2.65;;;2.25;;
23072;SDS011;67971;51.046;3.732;2023-07-29T12:02:05;3.03;;;2.20;;
23072;SDS011;67971;51.046;3.732;2023-07-29T12:04:35;2.83;;;2.08;;
23072;SDS011;67971;51.046;3.732;2023-07-29T12:07:02;4.13;;;2.20;;
23072;SDS011;67971;51.046;3.732;2023-07-29T12:09:28;2.38;;;2.05;;
23072;SDS011;67971;51.046;3.732;2023-07-29T12:11:55;2.90;;;2.28;;
23072;SDS011;67971;51.046;3.732;2023-07-29T12:14:21;3.53;;;2.20;;
23072;SDS011;67971;51.046;3.732;2023-07-29T12:16:50;2.22;;;1.90;;
23072;SDS011;67971;51.046;3.732;2023-07-29T12:19:17;2.42;;;1.80;;
23072;SDS011;67971;51.046;3.732;2023-07-29T12:21:43;2.92;;;1.83;;
23072;SDS011;67971;51.046;3.732;2023-07-29T12:24:09;4.22;;;1.83;;
23072;SDS011;67971;51.046;3.732;2023-07-29T12:26:36;3.35;;;1.73;;
23072;SDS011;67971;51.046;3.732;2023-07-29T12:29:11;4.22;;;1.80;;
23072;SDS011;67971;51.046;3.732;2023-07-29T12:31:38;2.35;;;1.50;;
23072;SDS011;67971;51.046;3.732;2023-07-29T12:34:04;2.35;;;1.50;;
23072;SDS011;67971;51.046;3.732;2023-07-29T12:36:46;2.10;;;1.42;;
23072;SDS011;67971;51.046;3.732;2023-07-29T12:39:18;3.80;;;1.90;;
23072;SDS011;67971;51.046;3.732;2023-07-29T12:41:47;2.70;;;1.25;;
23072;SDS011;67971;51.046;3.732;2023-07-29T12:44:14;4.68;;;1.50;;
23072;SDS011;67971;51.046;3.732;2023-07-29T12:46:40;3.17;;;1.55;;
23072;SDS011;67971;51.046;3.732;2023-07-29T12:49:05;5.15;;;1.83;;
23072;SDS011;67971;51.046;3.732;2023-07-29T12:51:31;1.90;;;1.40;;
23072;SDS011;67971;51.046;3.732;2023-07-29T12:53:57;1.90;;;1.50;;
23072;SDS011;67971;51.046;3.732;2023-07-29T12:56:23;4.63;;;1.52;;
23072;SDS011;67971;51.046;3.732;2023-07-29T12:58:48;1.73;;;1.42;;
23072;SDS011;67971;51.046;3.732;2023-07-29T13:01:14;2.42;;;1.50;;
23072;SDS011;67971;51.046;3.732;2023-07-29T13:03:46;4.35;;;1.75;;
23072;SDS011;67971;51.046;3.732;2023-07-29T13:06:13;2.88;;;1.70;;
23072;SDS011;67971;51.046;3.732;2023-07-29T13:08:39;3.20;;;1.70;;
23072;SDS011;67971;51.046;3.732;2023-07-29T13:11:04;4.13;;;1.60;;
23072;SDS011;67971;51.046;3.732;2023-07-29T13:13:30;3.50;;;1.60;;
23072;SDS011;67971;51.046;3.732;2023-07-29T13:15:57;5.63;;;1.90;;
23072;SDS011;67971;51.046;3.732;2023-07-29T13:18:23;2.38;;;1.88;;
23072;SDS011;67971;51.046;3.732;2023-07-29T13:20:48;4.25;;;1.73;;
23072;SDS011;67971;51.046;3.732;2023-07-29T13:23:14;2.38;;;1.52;;
23072;SDS011;67971;51.046;3.732;2023-07-29T13:25:40;1.88;;;1.23;;
23072;SDS011;67971;51.046;3.732;2023-07-29T13:28:06;2.08;;;1.30;;
23072;SDS011;67971;51.046;3.732;2023-07-29T13:30:32;1.77;;;1.50;;
23072;SDS011;67971;51.046;3.732;2023-07-29T13:32:58;4.78;;;1.63;;
23072;SDS011;67971;51.046;3.732;2023-07-29T13:35:24;4.15;;;1.80;;
23072;SDS011;67971;51.046;3.732;2023-07-29T13:37:49;4.68;;;1.85;;
23072;SDS011;67971;51.046;3.732;2023-07-29T13:40:15;15.85;;;3.25;;
23072;SDS011;67971;51.046;3.732;2023-07-29T13:42:41;5.32;;;2.30;;
23072;SDS011;67971;51.046;3.732;2023-07-29T13:45:06;4.07;;;2.10;;
23072;SDS011;67971;51.046;3.732;2023-07-29T13:47:33;6.57;;;2.45;;
23072;SDS011;67971;51.046;3.732;2023-07-29T13:49:59;5.40;;;2.25;;
23072;SDS011;67971;51.046;3.732;2023-07-29T13:52:25;2.75;;;2.22;;
23072;SDS011;67971;51.046;3.732;2023-07-29T13:54:51;2.95;;;2.40;;
23072;SDS011;67971;51.046;3.732;2023-07-29T13:57:17;2.17;;;1.90;;
23072;SDS011;67971;51.046;3.732;2023-07-29T13:59:42;3.40;;;2.40;;
23072;SDS011;67971;51.046;3.732;2023-07-29T14:02:08;2.53;;;2.10;;
23072;SDS011;67971;51.046;3.732;2023-07-29T14:04:33;3.35;;;2.70;;
23072;SDS011;67971;51.046;3.732;2023-07-29T14:06:59;4.50;;;2.33;;
23072;SDS011;67971;51.046;3.732;2023-07-29T14:09:25;2.00;;;1.80;;
23072;SDS011;67971;51.046;3.732;2023-07-29T14:11:51;6.20;;;2.05;;
23072;SDS011;67971;51.046;3.732;2023-07-29T14:14:17;1.80;;;1.48;;
23072;SDS011;67971;51.046;3.732;2023-07-29T14:16:43;3.13;;;1.65;;
23072;SDS011;67971;51.046;3.732;2023-07-29T14:19:08;1.77;;;1.40;;
23072;SDS011;67971;51.046;3.732;2023-07-29T14:21:34;3.28;;;1.50;;
23072;SDS011;67971;51.046;3.732;2023-07-29T14:23:59;2.92;;;1.30;;
23072;SDS011;67971;51.046;3.732;2023-07-29T14:26:25;1.77;;;1.08;;
23072;SDS011;67971;51.046;3.732;2023-07-29T14:28:51;1.25;;;1.00;;
23072;SDS011;67971;51.046;3.732;2023-07-29T14:31:16;1.85;;;1.17;;
23072;SDS011;67971;51.046;3.732;2023-07-29T14:33:43;1.67;;;1.00;;
23072;SDS011;67971;51.046;3.732;2023-07-29T14:36:09;1.30;;;1.10;;
23072;SDS011;67971;51.046;3.732;2023-07-29T14:38:35;1.60;;;1.00;;
23072;SDS011;67971;51.046;3.732;2023-07-29T14:41:01;4.65;;;1.20;;
23072;SDS011;67971;51.046;3.732;2023-07-29T14:43:27;1.85;;;1.40;;
23072;SDS011;67971;51.046;3.732;2023-07-29T14:45:53;1.52;;;1.42;;
23072;SDS011;67971;51.046;3.732;2023-07-29T14:48:18;1.50;;;1.00;;
23072;SDS011;67971;51.046;3.732;2023-07-29T14:50:44;1.35;;;0.90;;
23072;SDS011;67971;51.046;3.732;2023-07-29T14:53:10;1.67;;;1.50;;
23072;SDS011;67971;51.046;3.732;2023-07-29T14:55:39;2.00;;;1.10;;
23072;SDS011;67971;51.046;3.732;2023-07-29T14:58:04;1.98;;;1.42;;
23072;SDS011;67971;51.046;3.732;2023-07-29T15:00:30;1.58;;;1.00;;
23072;SDS011;67971;51.046;3.732;2023-07-29T15:02:55;1.67;;;0.90;;
23072;SDS011;67971;51.046;3.732;2023-07-29T15:05:21;5.05;;;1.17;;
23072;SDS011;67971;51.046;3.732;2023-07-29T15:07:47;2.28;;;1.30;;